Pineglen — VOGX — position and weather

sailwx.info

Track history (hours):
 
Tides and Currents Weather Stations Pressure Air Temp Water Temp Dewpoint Dewpoint Depression Visibility Wind Speed Wind Dir Waves Ship Positions

Pineglen

Last reported at 2014-Aug-20 00:33 UTC. Time now 2014-Aug-21 04:23 UTC.
Position N 44°25' W 075°50'.

Date/timePositionNaut miles runAvg speedWind from/ knotsBaromVisibWave heightAir tempDewpointWater temp
2014-Aug-20 00:33N 44°25' W 075°50'1111.0
2014-Aug-19 23:33N 44°34' W 075°42'1211.5
2014-Aug-19 22:33N 44°42' W 075°30'9 9.3
2014-Aug-19 21:33N 44°48' W 075°20'6 6.3
2014-Aug-19 20:33N 44°52' W 075°14'1010.3
2014-Aug-19 19:33N 44°57' W 075°00'7 7.0
2014-Aug-19 18:33N 44°59' W 074°51'3 2.7
2014-Aug-19 17:33N 44°59' W 074°47'2 1.9
2014-Aug-19 16:34N 44°59' W 074°44'8 7.8
2014-Aug-19 15:34N 45°03' W 074°34'9 8.7
2014-Aug-19 14:34N 45°08' W 074°25'1010.5
2014-Aug-19 13:34N 45°14' W 074°12'8 8.3
2014-Aug-19 12:33N 45°14' W 074°01'6 5.7
2014-Aug-19 11:33N 45°18' W 073°56'1 0.9
2014-Aug-19 10:34N 45°19' W 073°55'1 1.4
2014-Aug-19 09:34N 45°20' W 073°54'10 9.5
2014-Aug-19 08:34N 45°25' W 073°42'6 5.6
2014-Aug-19 07:33N 45°24' W 073°34'0 0.5
2014-Aug-19 06:33N 45°24' W 073°33'2 2.5
2014-Aug-19 05:33N 45°26' W 073°30'4 4.1
2014-Aug-19 04:33N 45°30' W 073°31'4 4.0
2014-Aug-19 03:33N 45°34' W 073°31'0 0.2
2014-Aug-19 02:33N 45°34' W 073°31'0 0.0
2014-Aug-19 01:33N 45°34' W 073°31'0 0.0
2014-Aug-19 00:33N 45°34' W 073°31'0 0.0
2014-Aug-18 23:33N 45°34' W 073°31'0 0.0
2014-Aug-18 22:33N 45°34' W 073°31'0 0.0
2014-Aug-18 21:33N 45°34' W 073°31'0 0.0
2014-Aug-18 20:33N 45°34' W 073°31'0 0.0
2014-Aug-18 19:33N 45°34' W 073°31'0 0.0
2014-Aug-18 18:33N 45°34' W 073°31'0 0.0
2014-Aug-18 17:33N 45°34' W 073°31'0 0.0
2014-Aug-18 16:33N 45°34' W 073°31'0 0.0
2014-Aug-18 15:33N 45°34' W 073°31'0 0.0
2014-Aug-18 14:33N 45°34' W 073°31'0 0.0
2014-Aug-18 13:33N 45°34' W 073°31'0 0.0
2014-Aug-18 12:33N 45°34' W 073°31'0 0.0
2014-Aug-18 10:33N 45°34' W 073°31'0 0.0
2014-Aug-18 09:33N 45°34' W 073°31'0 0.0
2014-Aug-18 08:33N 45°34' W 073°31'0 0.0
2014-Aug-18 07:33N 45°34' W 073°31'0 0.0
2014-Aug-18 06:33N 45°34' W 073°31'0 0.0
2014-Aug-18 05:33N 45°34' W 073°31'0 0.0
2014-Aug-18 04:33N 45°34' W 073°31'0 0.0
2014-Aug-18 03:33N 45°34' W 073°31'0 0.0
2014-Aug-18 02:33N 45°34' W 073°31'0 0.0
2014-Aug-18 01:33N 45°34' W 073°31'0 0.0
2014-Aug-18 00:33N 45°34' W 073°31'0 0.0
2014-Aug-17 18:33N 45°34' W 073°31'0 0.4
2014-Aug-17 17:34N 45°34' W 073°31'4 4.2
2014-Aug-17 16:34N 45°30' W 073°31'1 1.3
2014-Aug-17 15:34N 45°28' W 073°30'5 4.5
2014-Aug-17 14:34N 45°24' W 073°34'1 1.1
2014-Aug-17 13:34N 45°24' W 073°35'5 4.8
2014-Aug-17 12:34N 45°25' W 073°42'10 9.8
2014-Aug-17 11:33N 45°20' W 073°54'2 1.7
2014-Aug-17 10:34N 45°18' W 073°55'1 1.1
2014-Aug-17 09:34N 45°17' W 073°56'45 6.4
2014-Aug-17 02:34N 44°58' W 074°53'34 8.6
2014-Aug-16 22:34N 44°40' W 075°34'1211.8
2014-Aug-16 21:34N 44°31' W 075°46'1111.0
2014-Aug-16 20:34N 44°22' W 075°54'1010.3
2014-Aug-16 19:33N 44°15' W 076°05'1111.1
2014-Aug-16 18:34N 44°11' W 076°19'12511.4
2014-Aug-16 07:33N 43°22' W 078°58'14 6.8
2014-Aug-16 05:34N 43°13' W 079°13'2 1.5
2014-Aug-16 04:31N 43°12' W 079°12'4 0.9
2014-Aug-16 00:34N 43°08' W 079°12'1 0.6
2014-Aug-15 23:34N 43°07' W 079°12'258 5.7
2014-Aug-14 02:23N 45°53' W 083°49'  
Track history (hours):
 
Tides and Currents Weather Stations Pressure Air Temp Water Temp Dewpoint Dewpoint Depression Visibility Wind Speed Wind Dir Waves Ship Positions

Pineglen

Last reported at 2014-Aug-20 00:33 UTC. Time now 2014-Aug-21 04:23 UTC.
Position N 44°25' W 075°50'.

Date/timePositionNaut miles runAvg speedWind from/ knotsBaromVisibWave heightAir tempDewpointWater temp
2014-Aug-20 00:33N 44°25' W 075°50'1111.0
2014-Aug-19 23:33N 44°34' W 075°42'1211.5
2014-Aug-19 22:33N 44°42' W 075°30'9 9.3
2014-Aug-19 21:33N 44°48' W 075°20'6 6.3
2014-Aug-19 20:33N 44°52' W 075°14'1010.3
2014-Aug-19 19:33N 44°57' W 075°00'7 7.0
2014-Aug-19 18:33N 44°59' W 074°51'3 2.7
2014-Aug-19 17:33N 44°59' W 074°47'2 1.9
2014-Aug-19 16:34N 44°59' W 074°44'8 7.8
2014-Aug-19 15:34N 45°03' W 074°34'9 8.7
2014-Aug-19 14:34N 45°08' W 074°25'1010.5
2014-Aug-19 13:34N 45°14' W 074°12'8 8.3
2014-Aug-19 12:33N 45°14' W 074°01'6 5.7
2014-Aug-19 11:33N 45°18' W 073°56'1 0.9
2014-Aug-19 10:34N 45°19' W 073°55'1 1.4
2014-Aug-19 09:34N 45°20' W 073°54'10 9.5
2014-Aug-19 08:34N 45°25' W 073°42'6 5.6
2014-Aug-19 07:33N 45°24' W 073°34'0 0.5
2014-Aug-19 06:33N 45°24' W 073°33'2 2.5
2014-Aug-19 05:33N 45°26' W 073°30'4 4.1
2014-Aug-19 04:33N 45°30' W 073°31'4 4.0
2014-Aug-19 03:33N 45°34' W 073°31'0 0.2
2014-Aug-19 02:33N 45°34' W 073°31'0 0.0
2014-Aug-19 01:33N 45°34' W 073°31'0 0.0
2014-Aug-19 00:33N 45°34' W 073°31'0 0.0
2014-Aug-18 23:33N 45°34' W 073°31'0 0.0
2014-Aug-18 22:33N 45°34' W 073°31'0 0.0
2014-Aug-18 21:33N 45°34' W 073°31'0 0.0
2014-Aug-18 20:33N 45°34' W 073°31'0 0.0
2014-Aug-18 19:33N 45°34' W 073°31'0 0.0
2014-Aug-18 18:33N 45°34' W 073°31'0 0.0
2014-Aug-18 17:33N 45°34' W 073°31'0 0.0
2014-Aug-18 16:33N 45°34' W 073°31'0 0.0
2014-Aug-18 15:33N 45°34' W 073°31'0 0.0
2014-Aug-18 14:33N 45°34' W 073°31'0 0.0
2014-Aug-18 13:33N 45°34' W 073°31'0 0.0
2014-Aug-18 12:33N 45°34' W 073°31'0 0.0
2014-Aug-18 10:33N 45°34' W 073°31'0 0.0
2014-Aug-18 09:33N 45°34' W 073°31'0 0.0
2014-Aug-18 08:33N 45°34' W 073°31'0 0.0
2014-Aug-18 07:33N 45°34' W 073°31'0 0.0
2014-Aug-18 06:33N 45°34' W 073°31'0 0.0
2014-Aug-18 05:33N 45°34' W 073°31'0 0.0
2014-Aug-18 04:33N 45°34' W 073°31'0 0.0
2014-Aug-18 03:33N 45°34' W 073°31'0 0.0
2014-Aug-18 02:33N 45°34' W 073°31'0 0.0
2014-Aug-18 01:33N 45°34' W 073°31'0 0.0
2014-Aug-18 00:33N 45°34' W 073°31'0 0.0
2014-Aug-17 18:33N 45°34' W 073°31'0 0.4
2014-Aug-17 17:34N 45°34' W 073°31'4 4.2
2014-Aug-17 16:34N 45°30' W 073°31'1 1.3
2014-Aug-17 15:34N 45°28' W 073°30'5 4.5
2014-Aug-17 14:34N 45°24' W 073°34'1 1.1
2014-Aug-17 13:34N 45°24' W 073°35'5 4.8
2014-Aug-17 12:34N 45°25' W 073°42'10 9.8
2014-Aug-17 11:33N 45°20' W 073°54'2 1.7
2014-Aug-17 10:34N 45°18' W 073°55'1 1.1
2014-Aug-17 09:34N 45°17' W 073°56'45 6.4
2014-Aug-17 02:34N 44°58' W 074°53'34 8.6
2014-Aug-16 22:34N 44°40' W 075°34'1211.8
2014-Aug-16 21:34N 44°31' W 075°46'1111.0
2014-Aug-16 20:34N 44°22' W 075°54'1010.3
2014-Aug-16 19:33N 44°15' W 076°05'1111.1
2014-Aug-16 18:34N 44°11' W 076°19'12511.4
2014-Aug-16 07:33N 43°22' W 078°58'14 6.8
2014-Aug-16 05:34N 43°13' W 079°13'2 1.5
2014-Aug-16 04:31N 43°12' W 079°12'4 0.9
2014-Aug-16 00:34N 43°08' W 079°12'1 0.6
2014-Aug-15 23:34N 43°07' W 079°12'258 5.7
2014-Aug-14 02:23N 45°53' W 083°49'  

Dump ship's entire track history